createdAt,value
2018-06-29T00:01:02.955Z,102251.98
2018-06-29T00:03:31.784Z,102251.54
2018-06-29T00:06:00.591Z,102252.73
2018-06-29T00:08:29.512Z,102246.70
2018-06-29T00:10:58.399Z,102247.02
2018-06-29T00:13:27.224Z,102243.82
2018-06-29T00:15:56.003Z,102249.27
2018-06-29T00:18:25.279Z,102252.89
2018-06-29T00:20:54.134Z,102253.30
2018-06-29T00:23:22.892Z,102243.05
2018-06-29T00:25:51.705Z,102246.45
2018-06-29T00:28:20.467Z,102244.64
2018-06-29T00:30:49.123Z,102244.41
2018-06-29T00:33:18.145Z,102243.39
2018-06-29T00:35:46.855Z,102244.53
2018-06-29T00:38:15.660Z,102247.36
2018-06-29T00:40:44.525Z,102246.87
2018-06-29T00:43:13.154Z,102249.72
2018-06-29T00:45:48.056Z,102244.81
2018-06-29T00:48:16.835Z,102235.08
2018-06-29T00:50:45.461Z,102240.56
2018-06-29T00:53:14.549Z,102237.16
2018-06-29T00:55:43.411Z,102242.34
2018-06-29T00:58:12.223Z,102242.59
2018-06-29T01:00:41.077Z,102238.91
2018-06-29T01:03:09.880Z,102236.36
2018-06-29T01:05:38.567Z,102238.66
2018-06-29T01:08:07.679Z,102232.65
2018-06-29T01:10:36.772Z,102243.80
2018-06-29T01:13:05.646Z,102236.48
2018-06-29T01:15:34.470Z,102248.95
2018-06-29T01:18:03.292Z,102247.94
2018-06-29T01:20:32.202Z,102241.28
2018-06-29T01:23:00.999Z,102233.79
2018-06-29T01:25:29.823Z,102238.36
2018-06-29T01:27:58.594Z,102235.16
2018-06-29T01:30:27.376Z,102230.22
2018-06-29T01:32:56.298Z,102236.02
2018-06-29T01:35:25.060Z,102226.05
2018-06-29T01:37:53.731Z,102228.97
2018-06-29T01:40:22.552Z,102218.69
2018-06-29T01:42:51.395Z,102220.30
2018-06-29T01:45:26.138Z,102224.02
2018-06-29T01:47:54.992Z,102220.55
2018-06-29T01:50:23.786Z,102227.66
2018-06-29T01:52:53.009Z,102216.06
2018-06-29T01:55:21.863Z,102219.21
2018-06-29T01:57:50.741Z,102212.15
2018-06-29T02:00:19.575Z,102209.48
2018-06-29T02:02:48.430Z,102203.56
2018-06-29T02:05:17.220Z,102210.11
2018-06-29T02:07:46.127Z,102205.18
2018-06-29T02:10:15.175Z,102204.07
2018-06-29T02:12:44.016Z,102210.02
2018-06-29T02:15:12.752Z,102205.06
2018-06-29T02:17:41.550Z,102199.66
2018-06-29T02:20:10.391Z,102190.53
2018-06-29T02:22:39.236Z,102197.83
2018-06-29T02:25:07.894Z,102203.25
2018-06-29T02:27:36.995Z,102204.69
2018-06-29T02:30:06.407Z,102201.62
2018-06-29T02:32:35.251Z,102197.55
2018-06-29T02:35:04.303Z,102191.05
2018-06-29T02:37:33.147Z,102196.13
2018-06-29T02:40:02.371Z,102195.34
2018-06-29T02:42:31.155Z,102188.75
2018-06-29T02:45:00.085Z,102189.02
2018-06-29T02:47:29.239Z,102192.42
2018-06-29T02:49:58.075Z,102189.33
2018-06-29T02:52:26.838Z,102193.33
2018-06-29T02:54:55.632Z,102188.12
2018-06-29T02:57:24.541Z,102181.92
2018-06-29T02:59:53.364Z,102183.06
2018-06-29T03:02:22.152Z,102190.23
2018-06-29T03:04:50.973Z,102185.38
2018-06-29T03:07:19.770Z,102181.48
2018-06-29T03:09:48.726Z,102190.33
2018-06-29T03:12:17.520Z,102184.73
2018-06-29T03:14:46.363Z,102194.64
2018-06-29T03:17:15.155Z,102192.99
2018-06-29T03:19:44.331Z,102197.56
2018-06-29T03:22:13.222Z,102197.16
2018-06-29T03:24:42.326Z,102194.50
2018-06-29T03:27:11.316Z,102200.45
2018-06-29T03:29:40.086Z,102196.08
2018-06-29T03:32:08.961Z,102196.94
2018-06-29T03:34:37.781Z,102201.70
2018-06-29T03:37:06.882Z,102209.17
2018-06-29T03:39:35.619Z,102206.28
2018-06-29T03:42:04.500Z,102209.35
2018-06-29T03:44:33.327Z,102201.52
2018-06-29T03:47:02.286Z,102200.70
2018-06-29T03:49:30.936Z,102193.48
2018-06-29T03:51:59.787Z,102195.75
2018-06-29T03:54:28.867Z,102194.03
2018-06-29T03:56:57.751Z,102190.16
2018-06-29T03:59:26.581Z,102191.67
2018-06-29T04:01:55.415Z,102190.55
2018-06-29T04:04:24.185Z,102188.28
2018-06-29T04:06:53.050Z,102175.13
2018-06-29T04:09:21.839Z,102182.03
2018-06-29T04:11:50.615Z,102179.64
2018-06-29T04:14:19.504Z,102176.63
2018-06-29T04:16:48.342Z,102186.89
2018-06-29T04:19:17.113Z,102187.44
2018-06-29T04:21:46.010Z,102191.97
2018-06-29T04:24:14.764Z,102198.14
2018-06-29T04:26:43.580Z,102198.70
2018-06-29T04:29:12.390Z,102196.71
2018-06-29T04:31:41.173Z,102197.34
2018-06-29T04:34:10.046Z,102193.23
2018-06-29T04:36:38.725Z,102197.59
2018-06-29T04:39:09.862Z,102197.44
2018-06-29T04:41:38.816Z,102200.09
2018-06-29T04:44:07.684Z,102195.84
2018-06-29T04:46:36.485Z,102194.34
2018-06-29T04:49:05.464Z,102186.19
2018-06-29T04:51:34.261Z,102184.81
2018-06-29T04:54:03.109Z,102188.38
2018-06-29T04:56:31.941Z,102189.81
2018-06-29T04:59:00.807Z,102189.74
2018-06-29T05:01:29.745Z,102185.63
2018-06-29T05:03:58.584Z,102181.67
2018-06-29T05:06:27.380Z,102182.86
2018-06-29T05:08:56.179Z,102177.69
2018-06-29T05:11:25.018Z,102180.91
2018-06-29T05:13:53.945Z,102176.80
2018-06-29T05:16:22.723Z,102178.77
2018-06-29T05:18:51.568Z,102177.33
2018-06-29T05:21:20.618Z,102176.33
2018-06-29T05:23:49.467Z,102170.20
2018-06-29T05:26:18.304Z,102174.23
2018-06-29T05:28:47.090Z,102172.59
2018-06-29T05:31:15.929Z,102175.29
2018-06-29T05:33:49.136Z,102181.28
2018-06-29T05:36:18.007Z,102178.22
2018-06-29T05:38:46.853Z,102175.38
2018-06-29T05:41:15.784Z,102169.23
2018-06-29T05:43:44.612Z,102173.71
2018-06-29T05:46:13.292Z,102170.92
2018-06-29T05:48:42.175Z,102173.44
2018-06-29T05:51:11.185Z,102169.70
2018-06-29T05:53:39.801Z,102172.95
2018-06-29T05:56:08.652Z,102169.45
2018-06-29T05:58:37.509Z,102162.58
2018-06-29T06:01:09.408Z,102174.36
2018-06-29T06:03:38.311Z,102175.00
2018-06-29T06:06:07.528Z,102176.10
2018-06-29T06:08:36.408Z,102170.45
2018-06-29T06:11:05.621Z,102167.38
2018-06-29T06:13:34.421Z,102169.35
2018-06-29T06:16:03.350Z,102166.97
2018-06-29T06:18:32.180Z,102164.78
2018-06-29T06:21:00.966Z,102161.82
2018-06-29T06:23:29.654Z,102155.25
2018-06-29T06:25:58.428Z,102156.41
2018-06-29T06:28:27.450Z,102160.52
2018-06-29T06:30:56.556Z,102155.66
2018-06-29T06:33:25.430Z,102157.61
2018-06-29T06:35:54.049Z,102157.94
2018-06-29T06:38:22.891Z,102152.11
2018-06-29T06:40:51.763Z,102151.34
2018-06-29T06:43:20.579Z,102150.17
2018-06-29T06:45:55.322Z,102146.62
2018-06-29T06:48:24.157Z,102138.91
2018-06-29T06:50:52.998Z,102140.92
2018-06-29T06:53:21.641Z,102141.98
2018-06-29T06:55:50.455Z,102135.88
2018-06-29T06:58:19.345Z,102131.75
2018-06-29T07:00:48.139Z,102139.13
2018-06-29T07:03:17.085Z,102142.47
2018-06-29T07:05:45.894Z,102142.30
2018-06-29T07:08:14.693Z,102144.83
2018-06-29T07:10:43.555Z,102142.00
2018-06-29T07:13:12.344Z,102139.00
2018-06-29T07:15:41.219Z,102130.63
2018-06-29T07:18:10.179Z,102123.52
2018-06-29T07:20:38.835Z,102121.98
2018-06-29T07:23:07.648Z,102114.90
2018-06-29T07:25:36.483Z,102119.66
2018-06-29T07:28:05.649Z,102120.52
2018-06-29T07:30:34.314Z,102114.73
2018-06-29T07:33:03.085Z,102114.59
2018-06-29T07:35:31.899Z,102111.34
2018-06-29T07:38:00.716Z,102107.11
2018-06-29T07:40:29.641Z,102103.47
2018-06-29T07:42:58.727Z,102103.05
2018-06-29T07:45:33.654Z,102099.26
2018-06-29T07:48:02.501Z,102084.19
2018-06-29T07:50:31.406Z,102089.90
2018-06-29T07:53:00.211Z,102084.73
2018-06-29T07:55:29.099Z,102083.66
2018-06-29T07:57:57.927Z,102077.06
2018-06-29T08:00:26.810Z,102079.75
2018-06-29T08:02:55.649Z,102079.55
2018-06-29T08:05:24.354Z,102079.19
2018-06-29T08:07:53.247Z,102083.88
2018-06-29T08:10:21.925Z,102083.52
2018-06-29T08:12:50.765Z,102081.08
2018-06-29T08:15:19.465Z,102081.16
2018-06-29T08:17:48.312Z,102076.83
2018-06-29T08:20:17.183Z,102081.14
2018-06-29T08:22:46.022Z,102081.27
2018-06-29T08:25:15.979Z,102077.73
2018-06-29T08:27:44.925Z,102069.12
2018-06-29T08:30:14.279Z,102067.57
2018-06-29T08:32:43.270Z,102072.91
2018-06-29T08:35:12.056Z,102073.23
2018-06-29T08:37:40.902Z,102074.69
2018-06-29T08:40:10.246Z,102073.09
2018-06-29T08:42:39.161Z,102074.53
2018-06-29T08:45:09.370Z,102074.97
2018-06-29T08:47:38.143Z,102073.83
2018-06-29T08:50:07.022Z,102074.25
2018-06-29T08:52:35.730Z,102061.92
2018-06-29T08:55:04.999Z,102066.95
2018-06-29T08:57:33.909Z,102069.97
2018-06-29T09:00:02.887Z,102074.94
2018-06-29T09:02:31.762Z,102065.50
2018-06-29T09:05:00.687Z,102071.20
2018-06-29T09:07:29.507Z,102067.59
2018-06-29T09:09:58.341Z,102065.33
2018-06-29T09:12:27.120Z,102064.70
2018-06-29T09:14:55.959Z,102063.92
2018-06-29T09:17:24.867Z,102065.21
2018-06-29T09:19:53.673Z,102050.17
2018-06-29T09:22:22.707Z,102048.81
2018-06-29T09:24:51.554Z,102049.92
2018-06-29T09:27:20.343Z,102041.38
2018-06-29T09:29:49.431Z,102045.08
2018-06-29T09:32:18.212Z,102028.50
2018-06-29T09:34:47.078Z,102024.10
2018-06-29T09:37:15.883Z,102022.42
2018-06-29T09:39:44.732Z,102018.39
2018-06-29T09:42:13.567Z,102021.62
2018-06-29T09:44:42.422Z,102014.09
2018-06-29T09:47:11.196Z,102011.59
2018-06-29T09:49:39.825Z,102026.27
2018-06-29T09:52:08.752Z,102021.88
2018-06-29T09:54:37.649Z,102009.72
2018-06-29T09:57:06.269Z,102023.84
2018-06-29T09:59:35.176Z,102018.44
2018-06-29T10:02:04.170Z,102023.30
2018-06-29T10:04:32.993Z,102015.53
2018-06-29T10:07:02.327Z,102015.19
2018-06-29T10:09:30.945Z,102015.31
2018-06-29T10:11:59.791Z,102019.78
2018-06-29T10:14:28.612Z,102014.10
2018-06-29T10:16:57.503Z,102014.77
2018-06-29T10:19:26.396Z,102014.30
2018-06-29T10:21:55.232Z,102011.21
2018-06-29T10:24:24.070Z,102010.91
2018-06-29T10:26:52.910Z,102002.03
2018-06-29T10:29:21.718Z,102009.63
2018-06-29T10:31:50.597Z,102013.08
2018-06-29T10:34:19.389Z,102017.76
2018-06-29T10:36:48.322Z,102010.90
2018-06-29T10:39:17.139Z,102019.83
2018-06-29T10:41:46.060Z,102018.29
2018-06-29T10:44:14.887Z,102015.58
2018-06-29T10:46:43.529Z,102013.59
2018-06-29T10:49:12.369Z,102017.08
2018-06-29T10:51:41.204Z,102022.38
2018-06-29T10:54:10.013Z,102014.72
2018-06-29T10:56:38.929Z,102015.80
2018-06-29T10:59:07.590Z,102014.62
2018-06-29T11:01:36.448Z,102007.92
2018-06-29T11:04:05.301Z,102005.84
2018-06-29T11:06:33.952Z,102012.22
2018-06-29T11:09:02.992Z,102003.46
2018-06-29T11:11:31.762Z,102003.11
2018-06-29T11:14:00.462Z,101997.27
2018-06-29T11:16:29.069Z,101997.33
2018-06-29T11:18:57.935Z,102001.92
2018-06-29T11:21:26.827Z,101993.13
2018-06-29T11:23:55.690Z,101994.06
2018-06-29T11:26:24.516Z,101990.38
2018-06-29T11:28:53.326Z,101996.59
2018-06-29T11:31:22.158Z,101995.44
2018-06-29T11:33:51.035Z,101984.64
2018-06-29T11:36:19.817Z,101993.66
2018-06-29T11:38:48.644Z,101997.30
2018-06-29T11:41:17.474Z,101990.86
2018-06-29T11:43:46.324Z,101986.91
2018-06-29T11:46:15.226Z,101990.80
2018-06-29T11:48:44.155Z,101984.27
2018-06-29T11:51:12.895Z,101989.32
2018-06-29T11:53:41.853Z,101980.80
2018-06-29T11:56:11.000Z,101983.33
2018-06-29T11:58:39.936Z,101989.50
2018-06-29T12:01:08.802Z,101978.45
2018-06-29T12:03:37.618Z,101966.08
2018-06-29T12:06:06.488Z,101970.36
2018-06-29T12:08:35.279Z,101970.44
2018-06-29T12:11:04.222Z,101958.97
2018-06-29T12:13:32.901Z,101969.13
2018-06-29T12:16:02.012Z,101960.11
2018-06-29T12:18:31.126Z,101966.17
2018-06-29T12:20:59.968Z,101956.78
2018-06-29T12:23:28.750Z,101963.30
2018-06-29T12:25:58.044Z,101956.61
2018-06-29T12:28:26.838Z,101948.84
2018-06-29T12:30:55.663Z,101956.70
2018-06-29T12:33:24.455Z,101940.30
2018-06-29T12:35:53.340Z,101940.06
2018-06-29T12:38:22.124Z,101942.81
2018-06-29T12:40:51.032Z,101940.52
2018-06-29T12:43:19.908Z,101934.51
2018-06-29T12:45:51.672Z,101934.98
2018-06-29T12:48:20.517Z,101927.64
2018-06-29T12:50:49.364Z,101927.36
2018-06-29T12:53:18.139Z,101925.47
2018-06-29T12:55:46.996Z,101922.00
2018-06-29T12:58:16.139Z,101931.02
2018-06-29T13:00:44.972Z,101920.02
2018-06-29T13:03:13.780Z,101924.55
2018-06-29T13:05:42.715Z,101918.30
2018-06-29T13:08:11.295Z,101910.66
2018-06-29T13:10:40.061Z,101916.27
2018-06-29T13:13:08.925Z,101921.25
2018-06-29T13:15:37.717Z,101909.16
2018-06-29T13:18:06.585Z,101915.73
2018-06-29T13:20:35.376Z,101920.55
2018-06-29T13:23:04.214Z,101901.88
2018-06-29T13:25:33.251Z,101908.10
2018-06-29T13:28:02.430Z,101912.87
2018-06-29T13:30:31.219Z,101912.13
2018-06-29T13:33:00.045Z,101917.16
2018-06-29T13:35:28.864Z,101912.28
2018-06-29T13:37:57.791Z,101909.05
2018-06-29T13:40:26.728Z,101913.98
2018-06-29T13:42:55.564Z,101915.33
2018-06-29T13:45:24.639Z,101913.31
2018-06-29T13:47:53.624Z,101904.16
2018-06-29T13:50:22.464Z,101903.47
2018-06-29T13:52:51.237Z,101903.72
2018-06-29T13:55:20.352Z,101896.39
2018-06-29T13:57:49.159Z,101884.77
2018-06-29T14:00:18.098Z,101891.95
2018-06-29T14:02:46.943Z,101894.19
2018-06-29T14:05:15.743Z,101888.40
2018-06-29T14:07:44.559Z,101878.45
2018-06-29T14:10:13.369Z,101882.60
2018-06-29T14:12:42.168Z,101883.09
2018-06-29T14:15:11.056Z,101879.50
2018-06-29T14:17:39.823Z,101881.53
2018-06-29T14:20:08.743Z,101887.47
2018-06-29T14:22:37.680Z,101885.69
2018-06-29T14:25:06.749Z,101884.52
2018-06-29T14:27:35.659Z,101892.62
2018-06-29T14:30:04.809Z,101884.96
2018-06-29T14:32:33.646Z,101879.77
2018-06-29T14:35:02.520Z,101879.62
2018-06-29T14:37:31.312Z,101870.11
2018-06-29T14:40:00.504Z,101867.80
2018-06-29T14:42:29.388Z,101870.95
2018-06-29T14:44:58.255Z,101860.89
2018-06-29T14:47:27.055Z,101860.87
2018-06-29T14:49:55.816Z,101858.00
2018-06-29T14:52:24.683Z,101866.66
2018-06-29T14:54:53.465Z,101864.00
2018-06-29T14:57:23.002Z,101858.42
2018-06-29T14:59:51.883Z,101854.23
2018-06-29T15:02:20.717Z,101855.75
2018-06-29T15:04:49.382Z,101856.14
2018-06-29T15:07:18.221Z,101856.89
2018-06-29T15:09:46.900Z,101847.32
2018-06-29T15:12:15.721Z,101851.55
2018-06-29T15:14:44.498Z,101847.65
2018-06-29T15:17:13.381Z,101844.53
2018-06-29T15:19:42.170Z,101852.98
2018-06-29T15:22:11.021Z,101844.13
2018-06-29T15:24:39.826Z,101839.45
2018-06-29T15:27:08.643Z,101839.47
2018-06-29T15:29:37.554Z,101839.00
2018-06-29T15:32:06.630Z,101846.95
2018-06-29T15:34:35.425Z,101840.37
2018-06-29T15:37:04.375Z,101843.73
2018-06-29T15:39:33.163Z,101836.55
2018-06-29T15:42:02.066Z,101840.34
2018-06-29T15:44:30.839Z,101844.98
2018-06-29T15:46:59.693Z,101834.14
2018-06-29T15:49:28.545Z,101831.83
2018-06-29T15:51:57.344Z,101829.38
2018-06-29T15:54:26.040Z,101832.78
2018-06-29T15:56:54.792Z,101834.53
2018-06-29T15:59:23.735Z,101848.98
2018-06-29T16:01:52.547Z,101842.00
2018-06-29T16:04:21.234Z,101842.59
2018-06-29T16:06:50.143Z,101840.77
2018-06-29T16:09:18.931Z,101840.16
2018-06-29T16:11:47.686Z,101843.41
2018-06-29T16:14:16.498Z,101836.30
2018-06-29T16:16:45.193Z,101838.35
2018-06-29T16:19:14.088Z,101839.36
2018-06-29T16:21:42.702Z,101831.62
2018-06-29T16:24:11.496Z,101832.28
2018-06-29T16:26:40.283Z,101833.80
2018-06-29T16:29:09.194Z,101832.98
2018-06-29T16:31:38.035Z,101838.28
2018-06-29T16:34:06.887Z,101834.69
2018-06-29T16:36:35.674Z,101833.55
2018-06-29T16:39:07.737Z,101836.59
2018-06-29T16:41:36.532Z,101826.72
2018-06-29T16:44:05.642Z,101831.10
2018-06-29T16:46:34.448Z,101833.23
2018-06-29T16:49:03.242Z,101835.41
2018-06-29T16:51:32.012Z,101837.33
2018-06-29T16:54:00.820Z,101831.75
2018-06-29T16:56:29.705Z,101829.78
2018-06-29T16:58:58.596Z,101824.78
2018-06-29T17:01:27.380Z,101825.08
2018-06-29T17:03:55.986Z,101823.26
2018-06-29T17:06:24.623Z,101818.59
2018-06-29T17:08:53.470Z,101820.55
2018-06-29T17:11:22.280Z,101816.16
2018-06-29T17:13:51.368Z,101818.11
2018-06-29T17:16:20.218Z,101822.97
2018-06-29T17:18:49.185Z,101822.19
2018-06-29T17:21:17.904Z,101823.52
2018-06-29T17:23:46.636Z,101819.58
2018-06-29T17:26:15.467Z,101813.20
2018-06-29T17:28:44.242Z,101817.76
2018-06-29T17:31:13.427Z,101821.45
2018-06-29T17:33:42.335Z,101822.90
2018-06-29T17:36:11.448Z,101822.89
2018-06-29T17:38:40.363Z,101822.27
2018-06-29T17:41:09.517Z,101816.70
2018-06-29T17:43:38.359Z,101818.55
2018-06-29T17:46:07.259Z,101810.16
2018-06-29T17:48:36.133Z,101805.44
2018-06-29T17:51:04.874Z,101802.45
2018-06-29T17:53:33.979Z,101801.61
2018-06-29T17:56:02.873Z,101799.08
2018-06-29T17:58:31.939Z,101799.98
2018-06-29T18:01:00.778Z,101798.48
2018-06-29T18:03:29.607Z,101804.25
2018-06-29T18:05:58.405Z,101806.94
2018-06-29T18:08:27.599Z,101801.34
2018-06-29T18:10:56.540Z,101807.42
2018-06-29T18:13:25.432Z,101809.25
2018-06-29T18:15:54.264Z,101809.01
2018-06-29T18:18:23.089Z,101818.14
2018-06-29T18:20:51.899Z,101815.12
2018-06-29T18:23:20.837Z,101811.58
2018-06-29T18:25:49.863Z,101821.55
2018-06-29T18:28:19.354Z,101817.61
2018-06-29T18:30:48.097Z,101818.41
2018-06-29T18:33:17.857Z,101819.77
2018-06-29T18:35:49.906Z,101819.03
2018-06-29T18:38:19.107Z,101824.25
2018-06-29T18:40:47.788Z,101821.16
2018-06-29T18:43:16.761Z,101825.08
2018-06-29T18:45:51.632Z,101818.95
2018-06-29T18:48:21.149Z,101821.30
2018-06-29T18:50:49.974Z,101816.17
2018-06-29T18:53:19.749Z,101824.89
2018-06-29T18:55:48.980Z,101827.72
2018-06-29T18:58:17.871Z,101824.96
2018-06-29T19:00:46.816Z,101836.30
2018-06-29T19:03:15.683Z,101824.62
2018-06-29T19:05:44.787Z,101833.14
2018-06-29T19:08:13.566Z,101833.20
2018-06-29T19:10:42.401Z,101837.80
2018-06-29T19:13:11.247Z,101843.56
2018-06-29T19:15:40.475Z,101842.36
2018-06-29T19:18:09.782Z,101842.39
2018-06-29T19:20:38.672Z,101844.38
2018-06-29T19:23:08.215Z,101848.38
2018-06-29T19:25:37.096Z,101850.80
2018-06-29T19:28:05.931Z,101848.62
2018-06-29T19:30:34.806Z,101854.78
2018-06-29T19:33:04.126Z,101859.17
2018-06-29T19:35:33.260Z,101857.78
2018-06-29T19:38:01.972Z,101860.38
2018-06-29T19:40:30.810Z,101857.03
2018-06-29T19:42:59.601Z,101858.61
2018-06-29T19:45:34.883Z,101860.20
2018-06-29T19:48:03.877Z,101865.36
2018-06-29T19:50:32.748Z,101866.73
2018-06-29T19:53:01.569Z,101867.95
2018-06-29T19:55:30.406Z,101867.55
2018-06-29T19:57:59.267Z,101872.05
2018-06-29T20:00:28.196Z,101876.02
2018-06-29T20:02:57.055Z,101882.14
2018-06-29T20:05:25.855Z,101884.32
2018-06-29T20:07:54.759Z,101876.59
2018-06-29T20:10:23.551Z,101876.59
2018-06-29T20:12:52.475Z,101880.34
2018-06-29T20:15:21.296Z,101891.41
2018-06-29T20:17:50.185Z,101896.92
2018-06-29T20:20:19.116Z,101902.00
2018-06-29T20:22:47.910Z,101900.62
2018-06-29T20:25:16.775Z,101908.77
2018-06-29T20:27:45.588Z,101908.17
2018-06-29T20:30:14.450Z,101904.01
2018-06-29T20:32:43.511Z,101913.14
2018-06-29T20:35:12.325Z,101912.09
2018-06-29T20:37:41.050Z,101912.64
2018-06-29T20:40:10.196Z,101917.63
2018-06-29T20:42:39.087Z,101917.83
2018-06-29T20:45:07.892Z,101922.38
2018-06-29T20:47:36.767Z,101921.56
2018-06-29T20:50:05.789Z,101926.95
2018-06-29T20:52:34.581Z,101922.67
2018-06-29T20:55:03.572Z,101926.79
2018-06-29T20:57:32.388Z,101932.52
2018-06-29T21:00:01.284Z,101937.04
2018-06-29T21:02:30.123Z,101933.89
2018-06-29T21:04:58.936Z,101941.41
2018-06-29T21:07:27.699Z,101940.98
2018-06-29T21:09:56.548Z,101938.23
2018-06-29T21:12:25.416Z,101943.45
2018-06-29T21:14:54.324Z,101949.81
2018-06-29T21:17:23.116Z,101946.80
2018-06-29T21:19:51.966Z,101950.80
2018-06-29T21:22:21.015Z,101949.41
2018-06-29T21:24:49.831Z,101952.25
2018-06-29T21:27:18.735Z,101946.70
2018-06-29T21:29:47.566Z,101949.30
2018-06-29T21:32:16.427Z,101945.03
2018-06-29T21:34:45.275Z,101956.33
2018-06-29T21:37:13.975Z,101952.09
2018-06-29T21:39:42.897Z,101956.86
2018-06-29T21:42:11.719Z,101951.25
2018-06-29T21:44:40.510Z,101948.91
2018-06-29T21:47:09.392Z,101959.08
2018-06-29T21:49:38.177Z,101960.51
2018-06-29T21:52:07.152Z,101959.16
2018-06-29T21:54:35.941Z,101968.23
2018-06-29T21:57:04.897Z,101968.34
2018-06-29T21:59:33.555Z,101966.86
2018-06-29T22:02:02.708Z,101966.98
2018-06-29T22:04:31.621Z,101972.97
2018-06-29T22:07:00.479Z,101965.91
2018-06-29T22:09:29.273Z,101971.33
2018-06-29T22:11:58.212Z,101974.20
2018-06-29T22:14:27.028Z,101972.34
2018-06-29T22:16:55.969Z,101977.33
2018-06-29T22:19:24.754Z,101971.68
2018-06-29T22:21:53.572Z,101978.48
2018-06-29T22:24:22.362Z,101975.15
2018-06-29T22:26:51.277Z,101986.08
2018-06-29T22:29:20.126Z,101986.84
2018-06-29T22:31:49.003Z,101989.80
2018-06-29T22:34:17.774Z,101982.89
2018-06-29T22:36:46.660Z,101984.23
2018-06-29T22:39:15.311Z,101989.30
2018-06-29T22:41:44.199Z,101984.98
2018-06-29T22:44:13.035Z,101984.66
2018-06-29T22:46:41.689Z,101983.02
2018-06-29T22:49:10.511Z,101987.44
2018-06-29T22:51:39.165Z,101991.80
2018-06-29T22:54:08.134Z,101994.70
2018-06-29T22:56:37.302Z,101998.07
2018-06-29T22:59:06.205Z,101999.36
2018-06-29T23:01:35.014Z,101991.09
2018-06-29T23:04:03.880Z,101995.32
2018-06-29T23:06:32.716Z,102003.92
2018-06-29T23:09:01.517Z,101998.30
2018-06-29T23:11:30.292Z,101997.08
2018-06-29T23:13:59.115Z,101998.12
2018-06-29T23:16:27.899Z,102005.34
2018-06-29T23:18:56.842Z,102002.95
2018-06-29T23:21:25.596Z,101997.06
2018-06-29T23:23:54.266Z,101997.00
2018-06-29T23:26:23.055Z,102004.80
2018-06-29T23:28:51.867Z,101999.42
2018-06-29T23:31:20.752Z,102002.18
2018-06-29T23:33:49.406Z,101997.70
2018-06-29T23:36:18.808Z,102003.23
2018-06-29T23:38:47.581Z,102004.39
2018-06-29T23:41:16.379Z,102004.87
2018-06-29T23:43:45.238Z,102005.19
2018-06-29T23:46:14.039Z,102012.66
2018-06-29T23:48:42.835Z,102011.55
2018-06-29T23:51:11.659Z,102013.33
2018-06-29T23:53:40.443Z,102006.88
2018-06-29T23:56:09.387Z,102013.54
2018-06-29T23:58:38.200Z,102008.52
